createdAt,value
2019-04-23T00:02:24.143Z,0.30
2019-04-23T00:04:48.019Z,0.60
2019-04-23T00:07:25.897Z,0.60
2019-04-23T00:09:47.033Z,0.33
2019-04-23T00:12:20.316Z,0.50
2019-04-23T00:15:03.352Z,0.47
2019-04-23T00:17:17.915Z,0.28
2019-04-23T00:19:45.154Z,0.30
2019-04-23T00:22:15.111Z,0.37
2019-04-23T00:25:12.146Z,0.47
2019-04-23T00:27:27.523Z,0.40
2019-04-23T00:29:47.335Z,0.50
2019-04-23T00:32:15.161Z,0.60
2019-04-23T00:34:42.077Z,0.40
2019-04-23T00:37:13.237Z,0.40
2019-04-23T00:39:36.120Z,0.45
2019-04-23T00:42:06.674Z,0.60
2019-04-23T00:44:32.469Z,0.50
2019-04-23T00:47:01.364Z,0.60
2019-04-23T00:49:25.557Z,0.47
2019-04-23T00:51:59.007Z,0.40
2019-04-23T00:54:28.815Z,0.47
2019-04-23T00:56:55.423Z,0.53
2019-04-23T00:59:24.503Z,0.40
2019-04-23T01:01:56.870Z,0.47
2019-04-23T01:04:22.827Z,0.70
2019-04-23T01:06:46.095Z,0.50
2019-04-23T01:09:14.240Z,0.53
2019-04-23T01:11:43.486Z,0.40
2019-04-23T01:14:08.126Z,0.60
2019-04-23T01:16:37.990Z,0.60
2019-04-23T01:19:07.219Z,0.50
2019-04-23T01:21:18.261Z,0.70
2019-04-23T01:23:54.843Z,0.60
2019-04-23T01:26:34.401Z,0.50
2019-04-23T01:29:13.578Z,0.80
2019-04-23T01:31:43.423Z,0.65
2019-04-23T01:34:14.623Z,0.70
2019-04-23T01:36:52.220Z,0.80
2019-04-23T01:39:09.834Z,0.60
2019-04-23T01:41:33.793Z,0.78
2019-04-23T01:43:56.331Z,0.62
2019-04-23T01:46:35.740Z,0.70
2019-04-23T01:48:58.271Z,0.62
2019-04-23T01:51:38.173Z,0.70
2019-04-23T01:54:10.908Z,0.40
2019-04-23T01:56:24.277Z,0.50
2019-04-23T01:58:51.897Z,0.65
2019-04-23T02:01:16.058Z,1.00
2019-04-23T02:08:48.700Z,0.72
2019-04-23T02:11:25.538Z,0.70
2019-04-23T02:13:42.105Z,0.50
2019-04-23T02:16:24.698Z,0.47
2019-04-23T02:18:38.851Z,0.60
2019-04-23T02:21:10.308Z,0.60
2019-04-23T02:26:09.050Z,0.50
2019-04-23T02:31:24.553Z,0.35
2019-04-23T02:33:46.802Z,0.70
2019-04-23T02:36:07.932Z,0.50
2019-04-23T02:38:52.274Z,0.50
2019-04-23T02:41:18.482Z,0.50
2019-04-23T02:43:21.839Z,0.60
2019-04-23T02:50:54.169Z,0.62
2019-04-23T02:53:39.982Z,0.42
2019-04-23T02:58:26.033Z,0.50
2019-04-23T03:01:06.479Z,0.55
2019-04-23T03:03:25.749Z,0.75
2019-04-23T03:05:54.550Z,0.60
2019-04-23T03:08:17.109Z,0.93
2019-04-23T03:13:19.758Z,1.12
2019-04-23T03:15:52.257Z,0.70
2019-04-23T03:26:43.410Z,0.40
2019-04-23T03:29:05.708Z,0.60
2019-04-23T03:41:21.628Z,0.60
2019-04-23T03:43:43.097Z,0.45
2019-04-23T03:51:11.395Z,0.42
2019-04-23T03:56:13.466Z,0.55
2019-04-23T03:58:39.056Z,0.50
2019-04-23T04:01:07.852Z,0.50
2019-04-23T04:04:18.995Z,0.65
2019-04-23T04:11:09.969Z,0.60
2019-04-23T04:18:31.013Z,0.65
2019-04-23T04:21:01.141Z,0.60
2019-04-23T04:23:22.653Z,0.40
2019-04-23T04:25:49.927Z,0.78
2019-04-23T04:30:43.825Z,0.53
2019-04-23T04:33:29.893Z,0.42
2019-04-23T04:35:50.117Z,0.70
2019-04-23T04:38:38.666Z,0.65
2019-04-23T04:41:01.301Z,0.70
2019-04-23T04:43:22.548Z,0.55
2019-04-23T04:45:49.813Z,0.62
2019-04-23T04:48:09.875Z,0.85
2019-04-23T04:50:45.882Z,0.53
2019-04-23T04:53:12.070Z,0.70
2019-04-23T04:55:36.592Z,1.10
2019-04-23T04:58:07.121Z,0.60
2019-04-23T05:03:19.363Z,0.72
2019-04-23T05:08:15.573Z,0.60
2019-04-23T05:10:43.669Z,0.78
2019-04-23T05:13:22.382Z,0.70
2019-04-23T05:15:39.132Z,0.65
2019-04-23T05:23:25.561Z,0.78
2019-04-23T05:25:40.061Z,0.60
2019-04-23T05:30:52.159Z,0.75
2019-04-23T05:36:04.573Z,1.10
2019-04-23T05:38:18.639Z,0.78
2019-04-23T05:42:58.714Z,0.70
2019-04-23T05:45:29.839Z,0.70
2019-04-23T05:48:11.751Z,0.85
2019-04-23T05:50:35.748Z,0.70
2019-04-23T05:52:52.825Z,0.90
2019-04-23T05:55:19.048Z,0.60
2019-04-23T05:57:42.499Z,0.70
2019-04-23T06:00:16.121Z,1.10
2019-04-23T06:02:48.494Z,0.80
2019-04-23T06:05:22.429Z,0.82
2019-04-23T06:07:42.631Z,0.70
2019-04-23T06:10:14.977Z,0.65
2019-04-23T06:12:39.961Z,0.95
2019-04-23T06:15:05.221Z,0.78
2019-04-23T06:17:29.880Z,0.62
2019-04-23T06:20:07.841Z,0.82
2019-04-23T06:22:36.953Z,0.60
2019-04-23T06:24:57.900Z,0.70
2019-04-23T06:27:49.431Z,0.78
2019-04-23T06:29:59.477Z,0.50
2019-04-23T06:32:25.986Z,0.70
2019-04-23T06:34:54.993Z,0.50
2019-04-23T06:37:29.248Z,0.70
2019-04-23T06:39:48.435Z,0.68
2019-04-23T06:42:27.884Z,0.90
2019-04-23T06:44:57.606Z,0.85
2019-04-23T06:47:21.956Z,0.80
2019-04-23T06:54:56.191Z,0.75
2019-04-23T06:57:22.493Z,0.60
2019-04-23T06:59:59.177Z,0.90
2019-04-23T07:04:49.850Z,1.17
2019-04-23T07:09:40.084Z,0.90
2019-04-23T07:12:08.682Z,1.07
2019-04-23T07:14:44.553Z,0.98
2019-04-23T07:17:03.847Z,1.05
2019-04-23T07:19:37.149Z,1.67
2019-04-23T07:22:08.203Z,1.25
2019-04-23T07:24:29.862Z,1.05
2019-04-23T07:26:53.104Z,1.67
2019-04-23T07:29:30.907Z,1.32
2019-04-23T07:34:39.787Z,1.45
2019-04-23T07:36:57.219Z,0.90
2019-04-23T07:39:35.639Z,1.30
2019-04-23T07:44:49.629Z,1.52
2019-04-23T07:47:33.704Z,2.47
2019-04-23T07:50:06.250Z,1.75
2019-04-23T07:52:24.564Z,1.30
2019-04-23T07:54:54.388Z,1.77
2019-04-23T07:57:21.902Z,1.90
2019-04-23T07:59:48.679Z,1.60
2019-04-23T08:02:21.828Z,1.60
2019-04-23T08:04:54.490Z,1.15
2019-04-23T08:07:17.930Z,1.20
2019-04-23T08:09:44.010Z,1.22
2019-04-23T08:12:16.462Z,1.20
2019-04-23T08:14:44.763Z,0.80
2019-04-23T08:17:05.483Z,1.30
2019-04-23T08:19:42.583Z,1.30
2019-04-23T08:22:08.675Z,1.30
2019-04-23T08:24:45.378Z,1.25
2019-04-23T08:27:22.400Z,1.27
2019-04-23T08:29:48.851Z,1.10
2019-04-23T08:32:16.832Z,0.90
2019-04-23T08:37:15.018Z,1.00
2019-04-23T08:42:28.446Z,1.30
2019-04-23T08:44:46.194Z,1.40
2019-04-23T08:47:20.257Z,1.27
2019-04-23T08:52:11.620Z,0.98
2019-04-23T08:54:47.911Z,1.17
2019-04-23T08:57:08.874Z,0.80
2019-04-23T08:59:48.609Z,1.07
2019-04-23T09:04:40.085Z,0.85
2019-04-23T09:07:12.823Z,0.57
2019-04-23T09:09:34.683Z,0.70
2019-04-23T09:11:58.094Z,0.90
2019-04-23T09:14:24.385Z,0.60
2019-04-23T09:17:01.300Z,0.93
2019-04-23T09:22:03.341Z,1.07
2019-04-23T09:24:22.826Z,0.68
2019-04-23T09:26:56.407Z,0.70
2019-04-23T09:29:23.090Z,0.62
2019-04-23T09:34:43.166Z,1.10
2019-04-23T09:37:10.095Z,0.75
2019-04-23T09:39:44.516Z,0.70
2019-04-23T09:42:17.133Z,1.10
2019-04-23T09:44:56.852Z,0.88
2019-04-23T09:47:24.542Z,0.78
2019-04-23T09:49:42.465Z,0.90
2019-04-23T09:52:14.686Z,0.78
2019-04-23T09:57:03.905Z,0.78
2019-04-23T09:59:39.446Z,1.35
2019-04-23T10:01:54.097Z,1.10
2019-04-23T10:04:20.712Z,0.80
2019-04-23T10:06:38.941Z,0.80
2019-04-23T10:09:04.445Z,0.60
2019-04-23T10:11:30.520Z,0.90
2019-04-23T10:13:58.597Z,0.80
2019-04-23T10:16:27.923Z,0.72
2019-04-23T10:18:53.407Z,0.68
2019-04-23T10:21:21.340Z,0.70
2019-04-23T10:23:55.017Z,1.00
2019-04-23T10:26:21.902Z,0.70
2019-04-23T10:28:51.924Z,0.72
2019-04-23T10:31:18.900Z,0.60
2019-04-23T10:33:46.133Z,0.90
2019-04-23T10:36:15.827Z,0.85
2019-04-23T10:38:49.511Z,0.70
2019-04-23T10:41:15.978Z,0.68
2019-04-23T10:43:54.944Z,0.82
2019-04-23T10:46:53.687Z,0.90
2019-04-23T10:52:12.931Z,0.90
2019-04-23T10:54:41.934Z,0.72
2019-04-23T10:57:06.668Z,1.07
2019-04-23T11:02:26.625Z,0.72
2019-04-23T11:09:59.329Z,1.10
2019-04-23T11:12:37.041Z,0.75
2019-04-23T11:14:58.430Z,0.80
2019-04-23T11:17:27.896Z,0.68
2019-04-23T11:22:42.660Z,0.85
2019-04-23T11:27:14.664Z,0.50
2019-04-23T11:29:40.474Z,0.75
2019-04-23T11:32:30.645Z,0.60
2019-04-23T11:35:04.873Z,0.50
2019-04-23T11:37:29.854Z,0.68
2019-04-23T11:40:16.975Z,0.30
2019-04-23T11:42:38.003Z,0.40
2019-04-23T11:45:06.966Z,0.50
2019-04-23T11:48:12.330Z,0.50
2019-04-23T11:50:39.584Z,0.80
2019-04-23T11:58:09.837Z,0.40
2019-04-23T12:00:44.944Z,0.30
2019-04-23T12:03:37.211Z,0.50
2019-04-23T12:06:25.107Z,0.30
2019-04-23T12:08:57.033Z,0.40
2019-04-23T12:17:08.172Z,0.30
2019-04-23T12:24:58.817Z,0.40
2019-04-23T12:29:44.046Z,0.42
2019-04-23T12:37:39.337Z,0.53
2019-04-23T12:45:32.081Z,0.30
2019-04-23T12:50:46.836Z,0.30
2019-04-23T12:53:25.824Z,0.50
2019-04-23T12:58:11.470Z,0.40
2019-04-23T13:00:36.401Z,0.50
2019-04-23T13:03:18.674Z,1.25
2019-04-23T13:05:42.328Z,2.12
2019-04-23T13:11:10.129Z,1.60
2019-04-23T13:13:58.706Z,1.67
2019-04-23T13:16:25.247Z,1.47
2019-04-23T13:18:49.546Z,2.22
2019-04-23T13:21:45.231Z,2.17
2019-04-23T13:23:55.786Z,2.12
2019-04-23T13:26:31.179Z,2.20
2019-04-23T13:29:11.507Z,1.67
2019-04-23T13:31:29.287Z,1.70
2019-04-23T13:34:13.976Z,1.52
2019-04-23T13:39:10.268Z,1.20
2019-04-23T13:41:47.838Z,1.40
2019-04-23T13:44:10.964Z,0.98
2019-04-23T13:46:49.512Z,0.98
2019-04-23T13:49:22.508Z,1.10
2019-04-23T13:51:41.311Z,0.80
2019-04-23T13:54:24.107Z,0.80
2019-04-23T13:59:16.328Z,0.70
2019-04-23T14:04:16.765Z,0.55
2019-04-23T14:09:17.244Z,0.60
2019-04-23T14:11:34.279Z,0.47
2019-04-23T14:16:39.698Z,0.62
2019-04-23T14:19:02.331Z,0.33
2019-04-23T14:21:35.202Z,0.40
2019-04-23T14:24:08.277Z,0.70
2019-04-23T14:26:32.514Z,0.40
2019-04-23T14:28:52.984Z,0.30
2019-04-23T14:31:23.164Z,0.40
2019-04-23T14:38:54.532Z,0.50
2019-04-23T14:43:56.589Z,0.50
2019-04-23T14:46:45.576Z,0.20
2019-04-23T14:48:53.888Z,0.40
2019-04-23T14:53:46.485Z,0.40
2019-04-23T15:01:21.663Z,0.20
2019-04-23T15:06:19.361Z,0.50
2019-04-23T15:08:40.375Z,0.30
2019-04-23T15:11:11.901Z,0.20
2019-04-23T15:16:09.804Z,0.30
2019-04-23T15:18:44.974Z,0.25
2019-04-23T15:21:42.832Z,0.30
2019-04-23T15:28:12.109Z,0.50
2019-04-23T15:31:10.109Z,0.28
2019-04-23T15:33:38.871Z,0.50
2019-04-23T15:36:27.417Z,0.40
2019-04-23T15:38:43.591Z,0.40
2019-04-23T15:41:02.647Z,0.35
2019-04-23T15:43:22.828Z,0.28
2019-04-23T15:46:02.913Z,0.40
2019-04-23T15:48:26.033Z,0.20
2019-04-23T15:50:58.158Z,0.20
2019-04-23T15:53:11.347Z,0.30
2019-04-23T15:55:49.327Z,0.23
2019-04-23T15:58:35.776Z,0.30
2019-04-23T16:01:17.281Z,0.30
2019-04-23T16:03:13.577Z,3.30
2019-04-23T16:05:39.171Z,1.35
2019-04-23T16:08:43.455Z,1.57
2019-04-23T16:11:15.717Z,2.47
2019-04-23T16:13:36.835Z,2.25
2019-04-23T16:16:03.607Z,2.37
2019-04-23T16:18:37.024Z,1.92
2019-04-23T16:21:15.899Z,1.22
2019-04-23T16:23:37.750Z,1.27
2019-04-23T16:26:05.725Z,1.50
2019-04-23T16:28:42.280Z,1.42
2019-04-23T16:31:03.216Z,0.98
2019-04-23T16:33:16.294Z,1.17
2019-04-23T16:38:34.177Z,0.65
2019-04-23T16:40:57.075Z,0.93
2019-04-23T16:43:19.864Z,0.82
2019-04-23T16:45:53.161Z,0.70
2019-04-23T16:48:42.632Z,0.70
2019-04-23T16:51:05.316Z,0.70
2019-04-23T16:55:52.139Z,0.98
2019-04-23T16:58:21.481Z,1.45
2019-04-23T17:00:51.700Z,1.65
2019-04-23T17:05:39.519Z,1.80
2019-04-23T17:08:30.944Z,1.25
2019-04-23T17:10:38.801Z,1.07
2019-04-23T17:15:36.705Z,1.62
2019-04-23T17:18:07.316Z,1.35
2019-04-23T17:20:31.195Z,1.40
2019-04-23T17:23:05.501Z,1.02
2019-04-23T17:25:29.442Z,0.98
2019-04-23T17:28:03.618Z,1.20
2019-04-23T17:33:02.731Z,1.02
2019-04-23T17:35:24.367Z,1.20
2019-04-23T17:38:03.757Z,1.72
2019-04-23T17:40:39.456Z,1.10
2019-04-23T17:43:08.868Z,1.22
2019-04-23T17:45:48.663Z,0.90
2019-04-23T17:48:22.076Z,1.10
2019-04-23T17:56:04.014Z,0.80
2019-04-23T17:58:15.699Z,1.05
2019-04-23T18:00:54.380Z,1.50
2019-04-23T18:03:30.145Z,1.60
2019-04-23T18:05:40.862Z,1.20
2019-04-23T18:08:15.532Z,1.30
2019-04-23T18:10:41.582Z,1.62
2019-04-23T18:13:08.512Z,1.40
2019-04-23T18:15:35.155Z,1.75
2019-04-23T18:18:10.082Z,1.75
2019-04-23T18:20:45.598Z,1.50
2019-04-23T18:23:09.615Z,1.90
2019-04-23T18:25:45.851Z,1.60
2019-04-23T18:28:08.579Z,1.50
2019-04-23T18:31:12.932Z,1.80
2019-04-23T18:36:08.437Z,1.62
2019-04-23T18:38:50.126Z,1.40
2019-04-23T18:43:32.975Z,1.75
2019-04-23T18:46:08.706Z,1.87
2019-04-23T18:51:05.054Z,1.15
2019-04-23T18:53:45.613Z,1.30
2019-04-23T18:58:44.758Z,1.20
2019-04-23T19:03:53.482Z,1.20
2019-04-23T19:06:27.131Z,1.27
2019-04-23T19:11:43.899Z,1.07
2019-04-23T19:14:02.399Z,0.90
2019-04-23T19:16:36.136Z,1.25
2019-04-23T19:18:56.326Z,1.30
2019-04-23T19:24:03.338Z,1.00
2019-04-23T19:26:32.959Z,2.22
2019-04-23T19:29:07.006Z,2.35
2019-04-23T19:31:26.374Z,2.17
2019-04-23T19:34:02.888Z,1.50
2019-04-23T19:36:33.742Z,1.92
2019-04-23T19:38:56.101Z,1.72
2019-04-23T19:41:33.149Z,1.35
2019-04-23T19:43:56.236Z,1.87
2019-04-23T19:46:36.381Z,1.27
2019-04-23T19:49:02.307Z,0.90
2019-04-23T19:56:16.182Z,1.30
2019-04-23T19:58:51.778Z,0.98
2019-04-23T20:06:12.112Z,0.90
2019-04-23T20:11:08.077Z,0.80
2019-04-23T20:13:49.917Z,1.00
2019-04-23T20:18:46.362Z,0.70
2019-04-23T20:20:58.941Z,0.80
2019-04-23T20:23:52.244Z,0.80
2019-04-23T20:28:53.063Z,0.40
2019-04-23T20:31:21.789Z,0.40
2019-04-23T20:36:06.313Z,0.40
2019-04-23T20:41:05.887Z,0.40
2019-04-23T20:43:34.949Z,0.28
2019-04-23T20:46:00.068Z,0.42
2019-04-23T20:48:37.162Z,0.35
2019-04-23T20:50:52.307Z,0.60
2019-04-23T20:53:25.411Z,0.40
2019-04-23T20:56:01.521Z,0.37
2019-04-23T20:58:30.805Z,0.68
2019-04-23T21:03:50.173Z,0.20
2019-04-23T21:09:05.158Z,0.30
2019-04-23T21:11:08.822Z,0.33
2019-04-23T21:16:08.971Z,0.45
2019-04-23T21:18:37.881Z,0.20
2019-04-23T21:20:56.875Z,0.40
2019-04-23T21:23:37.451Z,0.30
2019-04-23T21:25:52.626Z,0.25
2019-04-23T21:31:06.361Z,0.23
2019-04-23T21:33:35.224Z,0.17
2019-04-23T21:39:03.291Z,0.23
2019-04-23T21:44:10.531Z,0.15
2019-04-23T21:46:28.145Z,0.20
2019-04-23T21:51:46.259Z,0.20
2019-04-23T21:53:52.612Z,0.20
2019-04-23T21:58:57.921Z,0.20
2019-04-23T22:04:08.746Z,0.20
2019-04-23T22:06:25.529Z,0.10
2019-04-23T22:08:52.923Z,0.20
2019-04-23T22:11:52.459Z,0.20
2019-04-23T22:16:14.583Z,0.10
2019-04-23T22:18:58.560Z,0.23
2019-04-23T22:21:14.400Z,0.30
2019-04-23T22:23:52.893Z,0.20
2019-04-23T22:28:40.818Z,0.30
2019-04-23T22:31:12.353Z,0.20
2019-04-23T22:33:44.455Z,0.20
2019-04-23T22:36:01.382Z,0.20
2019-04-23T22:38:26.447Z,0.20
2019-04-23T22:40:58.170Z,0.20
2019-04-23T22:43:20.392Z,0.30
2019-04-23T22:46:06.531Z,0.30
2019-04-23T22:48:23.675Z,0.30
2019-04-23T22:50:58.453Z,0.20
2019-04-23T22:56:01.725Z,0.30
2019-04-23T22:58:37.431Z,0.10
2019-04-23T23:01:14.307Z,0.20
2019-04-23T23:03:35.139Z,0.13
2019-04-23T23:08:34.655Z,0.15
2019-04-23T23:10:57.318Z,0.10
2019-04-23T23:13:33.200Z,0.10
2019-04-23T23:15:53.322Z,0.20
2019-04-23T23:18:40.549Z,0.03
2019-04-23T23:20:57.468Z,0.10
2019-04-23T23:23:17.730Z,0.15
2019-04-23T23:25:52.014Z,0.10
2019-04-23T23:30:58.063Z,0.17
2019-04-23T23:33:24.564Z,0.10
2019-04-23T23:40:36.597Z,0.20
2019-04-23T23:43:14.583Z,0.30
2019-04-23T23:50:36.429Z,0.25
2019-04-23T23:53:05.909Z,0.23
2019-04-23T23:55:28.847Z,0.20
2019-04-23T23:58:12.831Z,0.20
